createdAt,value
2018-08-07T00:01:19.096Z,100017.63
2018-08-07T00:04:17.032Z,100015.64
2018-08-07T00:07:15.130Z,100006.78
2018-08-07T00:10:13.953Z,100014.59
2018-08-07T00:13:12.071Z,100016.88
2018-08-07T00:16:10.340Z,100004.34
2018-08-07T00:19:08.795Z,100011.17
2018-08-07T00:22:07.034Z,100004.31
2018-08-07T00:25:05.132Z,100009.44
2018-08-07T00:28:04.178Z,100007.38
2018-08-07T00:31:02.566Z,100008.02
2018-08-07T00:34:00.581Z,99999.88
2018-08-07T00:37:00.629Z,100002.54
2018-08-07T00:39:58.677Z,100007.19
2018-08-07T00:42:57.069Z,99996.55
2018-08-07T00:45:55.104Z,99998.64
2018-08-07T00:48:53.353Z,99998.08
2018-08-07T00:51:51.410Z,99999.41
2018-08-07T00:54:51.795Z,99995.40
2018-08-07T00:57:50.587Z,99994.83
2018-08-07T01:00:48.664Z,99992.66
2018-08-07T01:03:46.644Z,99988.92
2018-08-07T01:06:45.086Z,100002.52
2018-08-07T01:09:43.790Z,99995.88
2018-08-07T01:12:41.907Z,99994.42
2018-08-07T01:15:41.772Z,99997.47
2018-08-07T01:18:40.322Z,99993.84
2018-08-07T01:21:38.458Z,99993.42
2018-08-07T01:24:36.791Z,99992.44
2018-08-07T01:27:35.814Z,99992.27
2018-08-07T01:30:37.145Z,99989.31
2018-08-07T01:33:35.208Z,99987.24
2018-08-07T01:36:33.204Z,99985.14
2018-08-07T01:39:32.425Z,99986.00
2018-08-07T01:42:30.847Z,99984.08
2018-08-07T01:45:29.279Z,99995.02
2018-08-07T01:48:27.471Z,99989.45
2018-08-07T01:51:25.820Z,99984.67
2018-08-07T01:54:24.237Z,99987.29
2018-08-07T01:57:22.015Z,99985.95
2018-08-07T02:00:22.196Z,99983.59
2018-08-07T02:03:20.201Z,99981.42
2018-08-07T02:06:18.301Z,99978.80
2018-08-07T02:09:17.304Z,99969.42
2018-08-07T02:12:15.431Z,99963.08
2018-08-07T02:15:14.488Z,99964.20
2018-08-07T02:18:12.798Z,99966.62
2018-08-07T02:21:11.023Z,99971.55
2018-08-07T02:24:10.059Z,99962.17
2018-08-07T02:27:08.146Z,99961.36
2018-08-07T02:30:06.493Z,99960.80
2018-08-07T02:33:04.681Z,99960.59
2018-08-07T02:36:03.902Z,99963.08
2018-08-07T02:39:02.047Z,99964.48
2018-08-07T02:42:04.105Z,99960.98
2018-08-07T02:45:02.103Z,99963.88
2018-08-07T02:47:59.952Z,99960.03
2018-08-07T02:50:58.245Z,99961.91
2018-08-07T02:53:56.232Z,99961.09
2018-08-07T02:56:54.464Z,99957.35
2018-08-07T02:59:52.891Z,99959.30
2018-08-07T03:02:51.440Z,99956.43
2018-08-07T03:05:49.603Z,99953.53
2018-08-07T03:08:47.726Z,99957.79
2018-08-07T03:11:46.439Z,99956.46
2018-08-07T03:14:44.484Z,99962.30
2018-08-07T03:17:43.246Z,99954.50
2018-08-07T03:20:41.298Z,99957.54
2018-08-07T03:23:40.171Z,99959.39
2018-08-07T03:26:38.651Z,99961.58
2018-08-07T03:29:36.552Z,99966.34
2018-08-07T03:32:34.758Z,99980.81
2018-08-07T03:35:33.185Z,99974.20
2018-08-07T03:38:31.525Z,99969.27
2018-08-07T03:41:29.588Z,99976.13
2018-08-07T03:44:27.635Z,99981.97
2018-08-07T03:47:25.918Z,99981.75
2018-08-07T03:50:25.087Z,99980.03
2018-08-07T03:53:23.470Z,99978.16
2018-08-07T03:56:22.051Z,99982.61
2018-08-07T03:59:20.225Z,99979.88
2018-08-07T04:02:18.470Z,99986.51
2018-08-07T04:05:17.358Z,99985.41
2018-08-07T04:08:15.608Z,99981.22
2018-08-07T04:11:14.303Z,99975.19
2018-08-07T04:14:12.301Z,99983.22
2018-08-07T04:17:10.878Z,99980.80
2018-08-07T04:20:09.070Z,99986.73
2018-08-07T04:23:07.513Z,99986.52
2018-08-07T04:26:05.502Z,99984.95
2018-08-07T04:29:04.158Z,99989.09
2018-08-07T04:32:02.244Z,99986.38
2018-08-07T04:35:00.563Z,99992.12
2018-08-07T04:37:59.283Z,99992.27
2018-08-07T04:40:57.920Z,99993.13
2018-08-07T04:43:55.785Z,99987.61
2018-08-07T04:46:53.936Z,99990.84
2018-08-07T04:49:52.751Z,99990.48
2018-08-07T04:52:52.287Z,99996.11
2018-08-07T04:55:50.483Z,99991.70
2018-08-07T04:58:48.627Z,99995.77
2018-08-07T05:01:46.683Z,99993.73
2018-08-07T05:04:45.044Z,99989.56
2018-08-07T05:07:42.743Z,99997.07
2018-08-07T05:10:40.852Z,99996.80
2018-08-07T05:13:39.045Z,99992.73
2018-08-07T05:16:38.182Z,100001.44
2018-08-07T05:19:36.325Z,99993.73
2018-08-07T05:22:35.799Z,99996.83
2018-08-07T05:25:33.889Z,99999.27
2018-08-07T05:28:32.199Z,99996.84
2018-08-07T05:31:30.300Z,99991.64
2018-08-07T05:34:28.412Z,99996.14
2018-08-07T05:37:27.631Z,100004.00
2018-08-07T05:40:26.616Z,100002.00
2018-08-07T05:43:25.955Z,99999.30
2018-08-07T05:46:24.760Z,99993.41
2018-08-07T05:49:24.068Z,99997.89
2018-08-07T05:52:22.156Z,99998.90
2018-08-07T05:55:20.295Z,100003.66
2018-08-07T05:58:18.416Z,99998.22
2018-08-07T06:01:17.386Z,100002.13
2018-08-07T06:04:15.530Z,100013.73
2018-08-07T06:07:15.712Z,100006.41
2018-08-07T06:10:14.160Z,100006.64
2018-08-07T06:13:12.112Z,100003.08
2018-08-07T06:16:10.183Z,100009.75
2018-08-07T06:19:09.020Z,100008.87
2018-08-07T06:22:07.508Z,100015.77
2018-08-07T06:25:05.280Z,100019.72
2018-08-07T06:28:03.722Z,100012.43
2018-08-07T06:31:01.831Z,100011.84
2018-08-07T06:34:00.268Z,100003.83
2018-08-07T06:36:58.455Z,100016.44
2018-08-07T06:39:56.632Z,100017.55
2018-08-07T06:42:55.458Z,100014.49
2018-08-07T06:45:54.034Z,100019.80
2018-08-07T06:48:53.464Z,100015.91
2018-08-07T06:51:52.152Z,100018.58
2018-08-07T06:54:50.851Z,100022.65
2018-08-07T06:57:50.730Z,100021.13
2018-08-07T07:00:48.744Z,100019.55
2018-08-07T07:03:47.085Z,100021.61
2018-08-07T07:06:45.101Z,100021.55
2018-08-07T07:09:43.209Z,100011.63
2018-08-07T07:12:41.554Z,100016.84
2018-08-07T07:15:39.701Z,100015.95
2018-08-07T07:18:37.939Z,100015.47
2018-08-07T07:21:38.066Z,100014.15
2018-08-07T07:24:36.203Z,100003.47
2018-08-07T07:27:34.391Z,99998.97
2018-08-07T07:30:35.480Z,100000.16
2018-08-07T07:33:33.665Z,99996.38
2018-08-07T07:36:32.036Z,99993.17
2018-08-07T07:39:31.143Z,99992.96
2018-08-07T07:42:30.205Z,99991.78
2018-08-07T07:45:30.170Z,99997.88
2018-08-07T07:48:36.756Z,99998.80
2018-08-07T07:51:35.031Z,99997.91
2018-08-07T07:54:33.187Z,99998.00
2018-08-07T07:57:31.575Z,99989.63
2018-08-07T08:00:38.728Z,99985.66
2018-08-07T08:03:36.911Z,99993.16
2018-08-07T08:06:34.853Z,99993.94
2018-08-07T08:09:33.220Z,99991.63
2018-08-07T08:12:33.007Z,99980.02
2018-08-07T08:15:37.496Z,99971.47
2018-08-07T08:18:35.278Z,99972.20
2018-08-07T08:21:33.560Z,99972.73
2018-08-07T08:24:31.583Z,99974.80
2018-08-07T08:27:29.923Z,99967.56
2018-08-07T08:30:28.833Z,99957.50
2018-08-07T08:33:26.919Z,99963.99
2018-08-07T08:36:25.260Z,99959.59
2018-08-07T08:39:24.359Z,99961.16
2018-08-07T08:42:22.299Z,99956.61
2018-08-07T08:45:22.536Z,99954.23
2018-08-07T08:48:22.850Z,99954.93
2018-08-07T08:51:21.813Z,99958.49
2018-08-07T08:54:20.064Z,99953.07
2018-08-07T08:57:18.135Z,99948.88
2018-08-07T09:00:16.493Z,99945.20
2018-08-07T09:03:15.510Z,99940.45
2018-08-07T09:06:14.653Z,99938.58
2018-08-07T09:09:13.041Z,99941.64
2018-08-07T09:12:11.568Z,99941.13
2018-08-07T09:15:09.726Z,99947.39
2018-08-07T09:18:08.340Z,99941.30
2018-08-07T09:21:06.523Z,99939.58
2018-08-07T09:24:04.463Z,99934.70
2018-08-07T09:27:02.461Z,99926.53
2018-08-07T09:30:01.370Z,99918.55
2018-08-07T09:33:01.332Z,99911.39
2018-08-07T09:35:59.864Z,99925.09
2018-08-07T09:38:58.562Z,99921.00
2018-08-07T09:41:56.701Z,99912.11
2018-08-07T09:44:54.839Z,99916.16
2018-08-07T09:47:55.702Z,99915.98
2018-08-07T09:51:13.975Z,99915.79
2018-08-07T09:54:11.990Z,99906.88
2018-08-07T09:57:10.381Z,99903.28
2018-08-07T10:00:08.598Z,99903.41
2018-08-07T10:03:09.651Z,99897.73
2018-08-07T10:06:07.629Z,99895.15
2018-08-07T10:09:06.768Z,99884.89
2018-08-07T10:12:04.936Z,99887.17
2018-08-07T10:15:03.328Z,99887.08
2018-08-07T10:18:01.795Z,99879.35
2018-08-07T10:20:59.851Z,99883.06
2018-08-07T10:23:57.914Z,99870.59
2018-08-07T10:26:56.088Z,99876.30
2018-08-07T10:29:54.627Z,99868.17
2018-08-07T10:32:52.938Z,99869.52
2018-08-07T10:35:51.359Z,99859.06
2018-08-07T10:38:49.690Z,99858.37
2018-08-07T10:41:48.812Z,99857.22
2018-08-07T10:44:46.884Z,99851.15
2018-08-07T10:47:46.207Z,99854.12
2018-08-07T10:50:44.450Z,99853.91
2018-08-07T10:53:42.436Z,99845.72
2018-08-07T10:56:40.845Z,99846.11
2018-08-07T10:59:38.580Z,99846.70
2018-08-07T11:02:37.882Z,99841.13
2018-08-07T11:05:37.793Z,99840.56
2018-08-07T11:08:36.022Z,99842.01
2018-08-07T11:11:33.907Z,99835.05
2018-08-07T11:14:32.785Z,99834.28
2018-08-07T11:17:30.658Z,99829.47
2018-08-07T11:20:30.100Z,99818.83
2018-08-07T11:23:28.027Z,99821.76
2018-08-07T11:26:27.241Z,99814.14
2018-08-07T11:29:25.448Z,99816.19
2018-08-07T11:32:23.885Z,99814.88
2018-08-07T11:35:23.281Z,99815.99
2018-08-07T11:38:22.520Z,99810.52
2018-08-07T11:41:21.178Z,99805.36
2018-08-07T11:44:20.224Z,99792.99
2018-08-07T11:47:19.135Z,99784.99
2018-08-07T11:50:18.369Z,99777.55
2018-08-07T11:53:17.592Z,99780.42
2018-08-07T11:56:16.128Z,99773.73
2018-08-07T11:59:14.639Z,99774.41
2018-08-07T12:02:14.262Z,99771.20
2018-08-07T12:05:12.182Z,99770.37
2018-08-07T12:08:10.683Z,99765.37
2018-08-07T12:11:09.534Z,99762.20
2018-08-07T12:14:09.157Z,99742.31
2018-08-07T12:17:08.092Z,99743.00
2018-08-07T12:20:06.807Z,99728.42
2018-08-07T12:23:06.388Z,99739.78
2018-08-07T12:26:04.344Z,99737.84
2018-08-07T12:29:02.606Z,99725.09
2018-08-07T12:32:01.040Z,99729.43
2018-08-07T12:34:58.987Z,99728.75
2018-08-07T12:37:58.678Z,99729.93
2018-08-07T12:40:56.949Z,99724.30
2018-08-07T12:43:55.195Z,99714.38
2018-08-07T12:46:53.507Z,99707.98
2018-08-07T12:49:51.812Z,99705.48
2018-08-07T12:52:50.071Z,99706.88
2018-08-07T12:55:48.692Z,99704.64
2018-08-07T12:58:46.578Z,99702.50
2018-08-07T13:01:44.843Z,99692.24
2018-08-07T13:04:42.792Z,99703.56
2018-08-07T13:07:40.799Z,99694.76
2018-08-07T13:10:40.370Z,99697.80
2018-08-07T13:13:39.504Z,99693.30
2018-08-07T13:16:39.098Z,99683.25
2018-08-07T13:19:37.446Z,99686.69
2018-08-07T13:22:35.727Z,99684.73
2018-08-07T13:25:35.040Z,99684.88
2018-08-07T13:28:33.245Z,99679.13
2018-08-07T13:31:31.815Z,99676.45
2018-08-07T13:34:30.596Z,99670.35
2018-08-07T13:37:28.756Z,99664.53
2018-08-07T13:40:31.100Z,99654.53
2018-08-07T13:43:29.376Z,99664.44
2018-08-07T13:46:27.404Z,99660.00
2018-08-07T13:49:25.873Z,99656.95
2018-08-07T13:52:23.932Z,99656.17
2018-08-07T13:55:23.183Z,99652.84
2018-08-07T13:58:21.795Z,99650.38
2018-08-07T14:01:21.628Z,99655.91
2018-08-07T14:04:19.852Z,99655.41
2018-08-07T14:07:18.279Z,99656.53
2018-08-07T14:10:17.105Z,99649.30
2018-08-07T14:13:15.544Z,99646.83
2018-08-07T14:16:13.968Z,99650.16
2018-08-07T14:19:11.898Z,99644.55
2018-08-07T14:22:10.573Z,99646.53
2018-08-07T14:25:08.876Z,99639.31
2018-08-07T14:28:07.743Z,99635.67
2018-08-07T14:31:05.822Z,99630.33
2018-08-07T14:34:03.943Z,99622.59
2018-08-07T14:37:02.026Z,99623.72
2018-08-07T14:40:00.168Z,99626.17
2018-08-07T14:42:59.528Z,99618.71
2018-08-07T14:45:57.727Z,99618.94
2018-08-07T14:48:55.963Z,99612.78
2018-08-07T14:51:53.827Z,99613.89
2018-08-07T14:54:52.168Z,99615.30
2018-08-07T14:57:51.082Z,99622.09
2018-08-07T15:00:49.480Z,99618.04
2018-08-07T15:03:47.780Z,99615.98
2018-08-07T15:06:46.597Z,99616.78
2018-08-07T15:09:45.044Z,99611.76
2018-08-07T15:12:43.864Z,99614.40
2018-08-07T15:15:44.272Z,99611.48
2018-08-07T15:18:43.556Z,99611.39
2018-08-07T15:21:41.855Z,99614.17
2018-08-07T15:24:40.135Z,99612.44
2018-08-07T15:27:38.546Z,99619.64
2018-08-07T15:30:38.762Z,99616.34
2018-08-07T15:33:36.853Z,99614.81
2018-08-07T15:36:35.204Z,99612.03
2018-08-07T15:39:34.562Z,99610.53
2018-08-07T15:42:34.048Z,99607.34
2018-08-07T15:45:34.121Z,99605.91
2018-08-07T15:48:33.265Z,99598.80
2018-08-07T15:51:31.515Z,99598.06
2018-08-07T15:54:29.902Z,99595.38
2018-08-07T15:57:28.147Z,99600.81
2018-08-07T16:00:30.366Z,99607.72
2018-08-07T16:03:28.340Z,99600.02
2018-08-07T16:06:26.578Z,99598.11
2018-08-07T16:09:25.081Z,99595.92
2018-08-07T16:12:23.540Z,99601.05
2018-08-07T16:15:22.545Z,99592.36
2018-08-07T16:18:22.004Z,99583.76
2018-08-07T16:21:19.996Z,99583.48
2018-08-07T16:24:19.349Z,99587.67
2018-08-07T16:27:17.327Z,99581.83
2018-08-07T16:30:15.649Z,99574.58
2018-08-07T16:33:13.664Z,99580.64
2018-08-07T16:36:12.191Z,99580.92
2018-08-07T16:39:10.101Z,99582.19
2018-08-07T16:42:08.523Z,99576.68
2018-08-07T16:45:07.853Z,99572.36
2018-08-07T16:48:06.015Z,99575.63
2018-08-07T16:51:04.067Z,99576.98
2018-08-07T16:54:04.054Z,99575.45
2018-08-07T16:57:03.390Z,99574.14
2018-08-07T17:00:01.760Z,99575.33
2018-08-07T17:03:00.188Z,99575.11
2018-08-07T17:05:58.440Z,99576.35
2018-08-07T17:08:56.919Z,99566.01
2018-08-07T17:11:55.319Z,99565.05
2018-08-07T17:14:53.273Z,99570.44
2018-08-07T17:17:52.601Z,99568.73
2018-08-07T17:20:50.716Z,99570.25
2018-08-07T17:23:50.012Z,99569.81
2018-08-07T17:26:48.075Z,99571.75
2018-08-07T17:29:46.110Z,99577.27
2018-08-07T17:32:45.737Z,99575.56
2018-08-07T17:35:43.381Z,99576.20
2018-08-07T17:38:41.704Z,99577.15
2018-08-07T17:41:40.073Z,99582.28
2018-08-07T17:44:37.998Z,99582.50
2018-08-07T17:47:36.383Z,99582.89
2018-08-07T17:50:38.930Z,99581.78
2018-08-07T17:53:37.395Z,99584.09
2018-08-07T17:56:37.500Z,99586.06
2018-08-07T17:59:35.957Z,99585.85
2018-08-07T18:02:34.294Z,99587.95
2018-08-07T18:05:32.579Z,99590.14
2018-08-07T18:08:31.394Z,99591.38
2018-08-07T18:11:29.515Z,99590.78
2018-08-07T18:14:28.576Z,99602.86
2018-08-07T18:17:27.790Z,99606.64
2018-08-07T18:20:34.209Z,99611.22
2018-08-07T18:23:32.299Z,99608.77
2018-08-07T18:26:30.305Z,99612.19
2018-08-07T18:29:28.435Z,99621.75
2018-08-07T18:32:27.058Z,99620.55
2018-08-07T18:35:27.750Z,99619.58
2018-08-07T18:38:25.789Z,99626.46
2018-08-07T18:41:24.077Z,99630.42
2018-08-07T18:44:23.175Z,99639.95
2018-08-07T18:47:21.482Z,99638.41
2018-08-07T18:50:20.513Z,99634.94
2018-08-07T18:53:18.325Z,99644.38
2018-08-07T18:56:16.469Z,99650.41
2018-08-07T18:59:15.152Z,99650.72
2018-08-07T19:02:13.298Z,99651.07
2018-08-07T19:05:11.390Z,99659.17
2018-08-07T19:08:09.212Z,99654.36
2018-08-07T19:11:07.282Z,99661.77
2018-08-07T19:14:05.925Z,99660.27
2018-08-07T19:17:04.438Z,99661.00
2018-08-07T19:20:02.346Z,99661.38
2018-08-07T19:23:00.511Z,99669.23
2018-08-07T19:25:58.461Z,99665.91
2018-08-07T19:28:56.623Z,99667.61
2018-08-07T19:31:54.701Z,99664.75
2018-08-07T19:34:52.738Z,99669.37
2018-08-07T19:37:50.922Z,99665.83
2018-08-07T19:40:49.083Z,99669.05
2018-08-07T19:43:47.126Z,99670.07
2018-08-07T19:46:47.263Z,99669.06
2018-08-07T19:49:45.858Z,99681.63
2018-08-07T19:52:45.635Z,99680.32
2018-08-07T19:55:43.906Z,99670.30
2018-08-07T19:58:43.143Z,99687.05
2018-08-07T20:01:41.327Z,99688.01
2018-08-07T20:04:39.509Z,99691.83
2018-08-07T20:07:37.663Z,99692.28
2018-08-07T20:10:36.592Z,99690.05
2018-08-07T20:13:34.510Z,99694.68
2018-08-07T20:16:33.144Z,99700.88
2018-08-07T20:19:31.432Z,99700.32
2018-08-07T20:22:35.105Z,99696.67
2018-08-07T20:25:33.775Z,99697.27
2018-08-07T20:28:31.935Z,99702.43
2018-08-07T20:31:30.022Z,99705.20
2018-08-07T20:34:28.410Z,99706.66
2018-08-07T20:37:27.402Z,99710.81
2018-08-07T20:40:28.825Z,99712.23
2018-08-07T20:43:27.681Z,99705.60
2018-08-07T20:46:26.696Z,99710.55
2018-08-07T20:49:24.844Z,99710.94
2018-08-07T20:52:23.064Z,99714.02
2018-08-07T20:55:22.176Z,99712.71
2018-08-07T20:58:21.399Z,99715.50
2018-08-07T21:01:19.237Z,99720.17
2018-08-07T21:04:17.564Z,99717.36
2018-08-07T21:07:17.679Z,99713.62
2018-08-07T21:10:16.746Z,99714.64
2018-08-07T21:13:15.422Z,99712.27
2018-08-07T21:16:13.712Z,99711.77
2018-08-07T21:19:11.671Z,99714.97
2018-08-07T21:22:10.412Z,99710.27
2018-08-07T21:25:08.298Z,99717.67
2018-08-07T21:28:08.269Z,99710.16
2018-08-07T21:31:06.185Z,99710.81
2018-08-07T21:34:04.309Z,99715.08
2018-08-07T21:37:02.268Z,99711.25
2018-08-07T21:40:01.084Z,99712.80
2018-08-07T21:43:01.135Z,99710.87
2018-08-07T21:45:59.138Z,99714.64
2018-08-07T21:48:57.680Z,99704.52
2018-08-07T21:51:56.186Z,99704.92
2018-08-07T21:54:54.222Z,99709.34
2018-08-07T21:57:52.451Z,99704.30
2018-08-07T22:01:00.465Z,99711.39
2018-08-07T22:03:58.567Z,99713.09
2018-08-07T22:06:56.487Z,99718.98
2018-08-07T22:09:55.748Z,99708.67
2018-08-07T22:12:54.763Z,99706.13
2018-08-07T22:15:53.103Z,99708.55
2018-08-07T22:18:50.972Z,99711.80
2018-08-07T22:21:49.364Z,99709.97
2018-08-07T22:24:48.123Z,99708.53
2018-08-07T22:27:46.786Z,99694.94
2018-08-07T22:30:46.383Z,99707.69
2018-08-07T22:33:44.784Z,99703.66
2018-08-07T22:36:42.920Z,99700.32
2018-08-07T22:39:40.902Z,99698.26
2018-08-07T22:42:39.347Z,99691.73
2018-08-07T22:45:38.001Z,99701.05
2018-08-07T22:48:36.057Z,99688.34
2018-08-07T22:51:34.518Z,99687.34
2018-08-07T22:54:32.704Z,99693.92
2018-08-07T22:57:32.921Z,99694.75
2018-08-07T23:00:33.336Z,99693.86
2018-08-07T23:03:31.821Z,99695.27
2018-08-07T23:06:29.864Z,99692.38
2018-08-07T23:09:30.084Z,99685.29
2018-08-07T23:12:28.522Z,99674.52
2018-08-07T23:15:29.883Z,99679.14
2018-08-07T23:18:28.132Z,99671.63
2018-08-07T23:21:26.613Z,99675.58
2018-08-07T23:24:24.549Z,99673.02
2018-08-07T23:27:22.740Z,99667.08
2018-08-07T23:30:22.937Z,99667.55
2018-08-07T23:33:21.492Z,99666.34
2018-08-07T23:36:20.373Z,99665.34
2018-08-07T23:39:19.480Z,99667.33
2018-08-07T23:42:17.725Z,99666.98
2018-08-07T23:45:18.370Z,99668.00
2018-08-07T23:48:16.915Z,99666.17
2018-08-07T23:51:15.342Z,99664.75
2018-08-07T23:54:13.650Z,99656.15
2018-08-07T23:57:11.726Z,99658.98
